sensor_id;sensor_type;location;lat;lon;timestamp;temperature;humidity
26691;DHT22;14307;51.718;8.938;2023-04-23T00:02:06;11.80;99.90
26691;DHT22;14307;51.718;8.938;2023-04-23T00:04:36;11.80;99.90
26691;DHT22;14307;51.718;8.938;2023-04-23T00:07:04;11.80;99.90
26691;DHT22;14307;51.718;8.938;2023-04-23T00:09:31;11.80;99.90
26691;DHT22;14307;51.718;8.938;2023-04-23T00:11:59;11.80;99.90
26691;DHT22;14307;51.718;8.938;2023-04-23T00:14:27;11.80;99.90
26691;DHT22;14307;51.718;8.938;2023-04-23T00:16:54;11.80;99.90
26691;DHT22;14307;51.718;8.938;2023-04-23T00:19:21;11.70;99.90
26691;DHT22;14307;51.718;8.938;2023-04-23T00:21:48;11.80;99.90
26691;DHT22;14307;51.718;8.938;2023-04-23T00:24:15;11.80;99.90
26691;DHT22;14307;51.718;8.938;2023-04-23T00:26:41;11.80;99.90
26691;DHT22;14307;51.718;8.938;2023-04-23T00:29:08;11.70;99.90
26691;DHT22;14307;51.718;8.938;2023-04-23T00:31:35;11.70;99.90
26691;DHT22;14307;51.718;8.938;2023-04-23T00:34:02;11.70;99.90
26691;DHT22;14307;51.718;8.938;2023-04-23T00:36:29;11.70;99.90
26691;DHT22;14307;51.718;8.938;2023-04-23T00:38:56;11.70;99.90
26691;DHT22;14307;51.718;8.938;2023-04-23T00:41:22;11.70;99.90
26691;DHT22;14307;51.718;8.938;2023-04-23T00:43:49;11.70;99.90
26691;DHT22;14307;51.718;8.938;2023-04-23T00:46:19;11.60;99.90
26691;DHT22;14307;51.718;8.938;2023-04-23T00:48:47;11.60;99.90
26691;DHT22;14307;51.718;8.938;2023-04-23T00:51:15;11.50;99.90
26691;DHT22;14307;51.718;8.938;2023-04-23T00:53:42;11.60;99.90
26691;DHT22;14307;51.718;8.938;2023-04-23T00:56:09;11.60;99.90
26691;DHT22;14307;51.718;8.938;2023-04-23T00:58:36;11.50;99.90
26691;DHT22;14307;51.718;8.938;2023-04-23T01:01:03;11.40;99.90
26691;DHT22;14307;51.718;8.938;2023-04-23T01:03:31;11.50;99.90
26691;DHT22;14307;51.718;8.938;2023-04-23T01:06:00;11.50;99.90
26691;DHT22;14307;51.718;8.938;2023-04-23T01:08:27;11.50;99.90
26691;DHT22;14307;51.718;8.938;2023-04-23T01:10:54;11.50;99.90
26691;DHT22;14307;51.718;8.938;2023-04-23T01:16:02;11.40;99.90
26691;DHT22;14307;51.718;8.938;2023-04-23T01:18:28;11.40;99.90
26691;DHT22;14307;51.718;8.938;2023-04-23T01:20:56;11.50;99.90
26691;DHT22;14307;51.718;8.938;2023-04-23T01:23:22;11.50;99.90
26691;DHT22;14307;51.718;8.938;2023-04-23T01:25:49;11.50;99.90
26691;DHT22;14307;51.718;8.938;2023-04-23T01:28:16;11.50;99.90
26691;DHT22;14307;51.718;8.938;2023-04-23T01:30:43;11.50;99.90
26691;DHT22;14307;51.718;8.938;2023-04-23T01:33:10;11.40;99.90
26691;DHT22;14307;51.718;8.938;2023-04-23T01:35:39;11.40;99.90
26691;DHT22;14307;51.718;8.938;2023-04-23T01:38:09;11.40;99.90
26691;DHT22;14307;51.718;8.938;2023-04-23T01:40:37;11.30;99.90
26691;DHT22;14307;51.718;8.938;2023-04-23T01:43:04;11.20;99.90
26691;DHT22;14307;51.718;8.938;2023-04-23T01:45:31;11.20;99.90
26691;DHT22;14307;51.718;8.938;2023-04-23T01:48:01;11.30;99.90
26691;DHT22;14307;51.718;8.938;2023-04-23T01:50:28;11.30;99.90
26691;DHT22;14307;51.718;8.938;2023-04-23T01:52:55;11.20;99.90
26691;DHT22;14307;51.718;8.938;2023-04-23T01:55:22;11.10;99.90
26691;DHT22;14307;51.718;8.938;2023-04-23T01:57:49;11.20;99.90
26691;DHT22;14307;51.718;8.938;2023-04-23T02:00:16;11.20;99.90
26691;DHT22;14307;51.718;8.938;2023-04-23T02:02:43;11.20;99.90
26691;DHT22;14307;51.718;8.938;2023-04-23T02:05:13;11.10;99.90
26691;DHT22;14307;51.718;8.938;2023-04-23T02:07:40;11.10;99.90
26691;DHT22;14307;51.718;8.938;2023-04-23T02:10:08;11.10;99.90
26691;DHT22;14307;51.718;8.938;2023-04-23T02:12:36;11.10;99.90
26691;DHT22;14307;51.718;8.938;2023-04-23T02:15:03;11.00;99.90
26691;DHT22;14307;51.718;8.938;2023-04-23T02:17:30;10.90;99.90
26691;DHT22;14307;51.718;8.938;2023-04-23T02:19:57;10.80;99.90
26691;DHT22;14307;51.718;8.938;2023-04-23T02:22:23;10.70;99.90
26691;DHT22;14307;51.718;8.938;2023-04-23T02:24:52;10.70;99.90
26691;DHT22;14307;51.718;8.938;2023-04-23T02:27:19;10.70;99.90
26691;DHT22;14307;51.718;8.938;2023-04-23T02:29:46;10.70;99.90
26691;DHT22;14307;51.718;8.938;2023-04-23T02:32:16;10.60;99.90
26691;DHT22;14307;51.718;8.938;2023-04-23T02:34:43;10.50;99.90
26691;DHT22;14307;51.718;8.938;2023-04-23T02:37:10;10.50;99.90
26691;DHT22;14307;51.718;8.938;2023-04-23T02:39:37;10.50;99.90
26691;DHT22;14307;51.718;8.938;2023-04-23T02:42:07;10.50;99.90
26691;DHT22;14307;51.718;8.938;2023-04-23T02:44:34;10.50;99.90
26691;DHT22;14307;51.718;8.938;2023-04-23T02:47:00;10.50;99.90
26691;DHT22;14307;51.718;8.938;2023-04-23T02:49:27;10.50;99.90
26691;DHT22;14307;51.718;8.938;2023-04-23T02:51:54;10.40;99.90
26691;DHT22;14307;51.718;8.938;2023-04-23T02:54:21;10.40;99.90
26691;DHT22;14307;51.718;8.938;2023-04-23T02:56:47;10.40;99.90
26691;DHT22;14307;51.718;8.938;2023-04-23T02:59:14;10.30;99.90
26691;DHT22;14307;51.718;8.938;2023-04-23T03:01:41;10.30;99.90
26691;DHT22;14307;51.718;8.938;2023-04-23T03:04:10;10.40;99.90
26691;DHT22;14307;51.718;8.938;2023-04-23T03:06:37;10.40;99.90
26691;DHT22;14307;51.718;8.938;2023-04-23T03:09:04;10.30;99.90
26691;DHT22;14307;51.718;8.938;2023-04-23T03:11:31;10.30;99.90
26691;DHT22;14307;51.718;8.938;2023-04-23T03:13:58;10.20;99.90
26691;DHT22;14307;51.718;8.938;2023-04-23T03:16:27;10.20;99.90
26691;DHT22;14307;51.718;8.938;2023-04-23T03:18:54;10.20;99.90
26691;DHT22;14307;51.718;8.938;2023-04-23T03:21:21;10.20;99.90
26691;DHT22;14307;51.718;8.938;2023-04-23T03:23:48;10.10;99.90
26691;DHT22;14307;51.718;8.938;2023-04-23T03:26:16;10.00;99.90
26691;DHT22;14307;51.718;8.938;2023-04-23T03:28:42;10.10;99.90
26691;DHT22;14307;51.718;8.938;2023-04-23T03:31:10;10.10;99.90
26691;DHT22;14307;51.718;8.938;2023-04-23T03:33:37;10.00;99.90
26691;DHT22;14307;51.718;8.938;2023-04-23T03:36:04;10.10;99.90
26691;DHT22;14307;51.718;8.938;2023-04-23T03:38:31;10.00;99.90
26691;DHT22;14307;51.718;8.938;2023-04-23T03:40:59;9.90;99.90
26691;DHT22;14307;51.718;8.938;2023-04-23T03:43:26;9.80;99.90
26691;DHT22;14307;51.718;8.938;2023-04-23T03:46:14;9.80;99.90
26691;DHT22;14307;51.718;8.938;2023-04-23T03:48:41;9.80;99.90
26691;DHT22;14307;51.718;8.938;2023-04-23T03:51:14;9.70;99.90
26691;DHT22;14307;51.718;8.938;2023-04-23T03:53:44;9.80;99.90
26691;DHT22;14307;51.718;8.938;2023-04-23T03:56:29;9.80;99.90
26691;DHT22;14307;51.718;8.938;2023-04-23T03:59:08;9.80;99.90
26691;DHT22;14307;51.718;8.938;2023-04-23T04:01:35;9.80;99.90
26691;DHT22;14307;51.718;8.938;2023-04-23T04:04:02;9.80;99.90
26691;DHT22;14307;51.718;8.938;2023-04-23T04:06:31;9.80;99.90
26691;DHT22;14307;51.718;8.938;2023-04-23T04:08:58;9.70;99.90
26691;DHT22;14307;51.718;8.938;2023-04-23T04:11:24;9.70;99.90
26691;DHT22;14307;51.718;8.938;2023-04-23T04:13:51;9.80;99.90
26691;DHT22;14307;51.718;8.938;2023-04-23T04:16:18;9.80;99.90
26691;DHT22;14307;51.718;8.938;2023-04-23T04:18:45;9.80;99.90
26691;DHT22;14307;51.718;8.938;2023-04-23T04:21:11;9.80;99.90
26691;DHT22;14307;51.718;8.938;2023-04-23T04:23:38;9.80;99.90
26691;DHT22;14307;51.718;8.938;2023-04-23T04:26:05;9.80;99.90
26691;DHT22;14307;51.718;8.938;2023-04-23T04:28:33;9.80;99.90
26691;DHT22;14307;51.718;8.938;2023-04-23T04:31:02;9.80;99.90
26691;DHT22;14307;51.718;8.938;2023-04-23T04:33:29;9.90;99.90
26691;DHT22;14307;51.718;8.938;2023-04-23T04:35:56;9.90;99.90
26691;DHT22;14307;51.718;8.938;2023-04-23T04:38:23;9.90;99.90
26691;DHT22;14307;51.718;8.938;2023-04-23T04:40:49;9.90;99.90
26691;DHT22;14307;51.718;8.938;2023-04-23T04:43:16;9.90;99.90
26691;DHT22;14307;51.718;8.938;2023-04-23T04:45:43;9.90;99.90
26691;DHT22;14307;51.718;8.938;2023-04-23T04:48:10;9.90;99.90
26691;DHT22;14307;51.718;8.938;2023-04-23T04:50:37;9.90;99.90
26691;DHT22;14307;51.718;8.938;2023-04-23T04:53:03;9.80;99.90
26691;DHT22;14307;51.718;8.938;2023-04-23T04:55:30;9.90;99.90
26691;DHT22;14307;51.718;8.938;2023-04-23T04:57:56;9.90;99.90
26691;DHT22;14307;51.718;8.938;2023-04-23T05:00:25;9.90;99.90
26691;DHT22;14307;51.718;8.938;2023-04-23T05:02:56;10.00;99.90
26691;DHT22;14307;51.718;8.938;2023-04-23T05:05:24;10.00;99.90
26691;DHT22;14307;51.718;8.938;2023-04-23T05:07:52;10.00;99.90
26691;DHT22;14307;51.718;8.938;2023-04-23T05:10:25;10.00;99.90
26691;DHT22;14307;51.718;8.938;2023-04-23T05:12:52;9.90;99.90
26691;DHT22;14307;51.718;8.938;2023-04-23T05:15:19;9.90;99.90
26691;DHT22;14307;51.718;8.938;2023-04-23T05:17:45;9.90;99.90
26691;DHT22;14307;51.718;8.938;2023-04-23T05:20:12;10.00;99.90
26691;DHT22;14307;51.718;8.938;2023-04-23T05:22:41;10.00;99.90
26691;DHT22;14307;51.718;8.938;2023-04-23T05:25:09;9.90;99.90
26691;DHT22;14307;51.718;8.938;2023-04-23T05:27:37;10.00;99.90
26691;DHT22;14307;51.718;8.938;2023-04-23T05:30:06;10.00;99.90
26691;DHT22;14307;51.718;8.938;2023-04-23T05:32:34;10.00;99.90
26691;DHT22;14307;51.718;8.938;2023-04-23T05:35:01;10.00;99.90
26691;DHT22;14307;51.718;8.938;2023-04-23T05:37:29;10.00;99.90
26691;DHT22;14307;51.718;8.938;2023-04-23T05:39:56;10.00;99.90
26691;DHT22;14307;51.718;8.938;2023-04-23T05:42:26;10.00;99.90
26691;DHT22;14307;51.718;8.938;2023-04-23T05:44:52;10.00;99.90
26691;DHT22;14307;51.718;8.938;2023-04-23T05:47:20;10.00;99.90
26691;DHT22;14307;51.718;8.938;2023-04-23T05:49:47;10.10;99.90
26691;DHT22;14307;51.718;8.938;2023-04-23T05:52:14;10.10;99.90
26691;DHT22;14307;51.718;8.938;2023-04-23T05:54:41;10.10;99.90
26691;DHT22;14307;51.718;8.938;2023-04-23T05:57:08;10.10;99.90
26691;DHT22;14307;51.718;8.938;2023-04-23T05:59:35;10.20;99.90
26691;DHT22;14307;51.718;8.938;2023-04-23T06:02:02;10.20;99.90
26691;DHT22;14307;51.718;8.938;2023-04-23T06:04:28;10.20;99.90
26691;DHT22;14307;51.718;8.938;2023-04-23T06:06:55;10.20;99.90
26691;DHT22;14307;51.718;8.938;2023-04-23T06:09:22;10.30;99.90
26691;DHT22;14307;51.718;8.938;2023-04-23T06:11:51;10.40;99.90
26691;DHT22;14307;51.718;8.938;2023-04-23T06:14:18;10.50;99.90
26691;DHT22;14307;51.718;8.938;2023-04-23T06:16:44;10.60;99.90
26691;DHT22;14307;51.718;8.938;2023-04-23T06:19:11;10.60;99.90
26691;DHT22;14307;51.718;8.938;2023-04-23T06:21:38;10.60;99.90
26691;DHT22;14307;51.718;8.938;2023-04-23T06:24:06;10.60;99.90
26691;DHT22;14307;51.718;8.938;2023-04-23T06:26:35;10.70;99.90
26691;DHT22;14307;51.718;8.938;2023-04-23T06:29:10;10.60;99.90
26691;DHT22;14307;51.718;8.938;2023-04-23T06:31:46;10.70;99.90
26691;DHT22;14307;51.718;8.938;2023-04-23T06:34:13;10.80;99.90
26691;DHT22;14307;51.718;8.938;2023-04-23T06:36:39;10.90;99.90
26691;DHT22;14307;51.718;8.938;2023-04-23T06:39:06;11.20;99.90
26691;DHT22;14307;51.718;8.938;2023-04-23T06:41:33;11.40;99.90
26691;DHT22;14307;51.718;8.938;2023-04-23T06:44:12;11.60;99.90
26691;DHT22;14307;51.718;8.938;2023-04-23T06:46:46;11.90;99.90
26691;DHT22;14307;51.718;8.938;2023-04-23T06:49:13;12.10;99.90
26691;DHT22;14307;51.718;8.938;2023-04-23T06:51:40;12.50;99.90
26691;DHT22;14307;51.718;8.938;2023-04-23T06:54:07;12.50;99.90
26691;DHT22;14307;51.718;8.938;2023-04-23T06:56:33;12.60;99.90
26691;DHT22;14307;51.718;8.938;2023-04-23T06:59:00;12.80;99.90
26691;DHT22;14307;51.718;8.938;2023-04-23T07:01:28;12.90;99.90
26691;DHT22;14307;51.718;8.938;2023-04-23T07:03:55;12.90;99.90
26691;DHT22;14307;51.718;8.938;2023-04-23T07:06:21;12.80;99.90
26691;DHT22;14307;51.718;8.938;2023-04-23T07:08:48;12.90;99.90
26691;DHT22;14307;51.718;8.938;2023-04-23T07:11:15;13.20;99.90
26691;DHT22;14307;51.718;8.938;2023-04-23T07:13:42;13.20;99.90
26691;DHT22;14307;51.718;8.938;2023-04-23T07:16:08;13.10;99.90
26691;DHT22;14307;51.718;8.938;2023-04-23T07:18:35;13.00;99.90
26691;DHT22;14307;51.718;8.938;2023-04-23T07:21:02;13.00;99.90
26691;DHT22;14307;51.718;8.938;2023-04-23T07:23:28;12.90;99.90
26691;DHT22;14307;51.718;8.938;2023-04-23T07:25:55;12.70;99.90
26691;DHT22;14307;51.718;8.938;2023-04-23T07:28:22;12.80;99.90
26691;DHT22;14307;51.718;8.938;2023-04-23T07:30:49;12.90;99.90
26691;DHT22;14307;51.718;8.938;2023-04-23T07:33:15;12.90;99.90
26691;DHT22;14307;51.718;8.938;2023-04-23T07:35:42;12.90;99.90
26691;DHT22;14307;51.718;8.938;2023-04-23T07:38:09;13.10;99.90
26691;DHT22;14307;51.718;8.938;2023-04-23T07:40:36;13.10;99.90
26691;DHT22;14307;51.718;8.938;2023-04-23T07:43:03;13.30;99.90
26691;DHT22;14307;51.718;8.938;2023-04-23T07:45:30;13.40;99.90
26691;DHT22;14307;51.718;8.938;2023-04-23T07:47:57;13.80;99.90
26691;DHT22;14307;51.718;8.938;2023-04-23T07:50:24;14.40;99.90
26691;DHT22;14307;51.718;8.938;2023-04-23T07:52:51;14.60;99.90
26691;DHT22;14307;51.718;8.938;2023-04-23T07:55:17;14.90;99.90
26691;DHT22;14307;51.718;8.938;2023-04-23T07:57:45;15.30;99.90
26691;DHT22;14307;51.718;8.938;2023-04-23T08:00:12;15.40;99.90
26691;DHT22;14307;51.718;8.938;2023-04-23T08:02:39;15.50;99.90
26691;DHT22;14307;51.718;8.938;2023-04-23T08:05:07;15.70;99.90
26691;DHT22;14307;51.718;8.938;2023-04-23T08:07:34;15.70;99.90
26691;DHT22;14307;51.718;8.938;2023-04-23T08:10:01;15.80;99.90
26691;DHT22;14307;51.718;8.938;2023-04-23T08:12:32;16.00;99.90
26691;DHT22;14307;51.718;8.938;2023-04-23T08:15:01;16.30;99.90
26691;DHT22;14307;51.718;8.938;2023-04-23T08:17:35;16.30;99.90
26691;DHT22;14307;51.718;8.938;2023-04-23T08:20:03;16.30;99.90
26691;DHT22;14307;51.718;8.938;2023-04-23T08:22:32;16.50;99.90
26691;DHT22;14307;51.718;8.938;2023-04-23T08:24:58;16.90;99.90
26691;DHT22;14307;51.718;8.938;2023-04-23T08:27:25;17.20;99.90
26691;DHT22;14307;51.718;8.938;2023-04-23T08:29:52;17.10;99.90
26691;DHT22;14307;51.718;8.938;2023-04-23T08:32:18;17.30;99.90
26691;DHT22;14307;51.718;8.938;2023-04-23T08:34:46;17.30;99.90
26691;DHT22;14307;51.718;8.938;2023-04-23T08:37:12;17.40;99.90
26691;DHT22;14307;51.718;8.938;2023-04-23T08:39:53;17.30;99.90
26691;DHT22;14307;51.718;8.938;2023-04-23T08:42:36;17.10;99.90
26691;DHT22;14307;51.718;8.938;2023-04-23T08:45:03;17.00;99.90
26691;DHT22;14307;51.718;8.938;2023-04-23T08:47:31;16.60;99.90
26691;DHT22;14307;51.718;8.938;2023-04-23T08:49:58;16.30;99.90
26691;DHT22;14307;51.718;8.938;2023-04-23T08:52:28;16.30;99.90
26691;DHT22;14307;51.718;8.938;2023-04-23T08:54:59;16.80;99.90
26691;DHT22;14307;51.718;8.938;2023-04-23T08:57:27;17.00;99.90
26691;DHT22;14307;51.718;8.938;2023-04-23T08:59:54;17.50;99.90
26691;DHT22;14307;51.718;8.938;2023-04-23T09:02:22;17.70;99.90
26691;DHT22;14307;51.718;8.938;2023-04-23T09:04:51;17.60;99.90
26691;DHT22;14307;51.718;8.938;2023-04-23T09:07:22;17.30;99.90
26691;DHT22;14307;51.718;8.938;2023-04-23T09:09:49;17.00;99.90
26691;DHT22;14307;51.718;8.938;2023-04-23T09:12:15;16.80;99.90
26691;DHT22;14307;51.718;8.938;2023-04-23T09:14:42;16.70;99.90
26691;DHT22;14307;51.718;8.938;2023-04-23T09:17:10;16.60;99.90
26691;DHT22;14307;51.718;8.938;2023-04-23T09:19:38;16.70;99.90
26691;DHT22;14307;51.718;8.938;2023-04-23T09:22:06;16.70;99.90
26691;DHT22;14307;51.718;8.938;2023-04-23T09:24:33;16.70;99.90
26691;DHT22;14307;51.718;8.938;2023-04-23T09:27:00;16.30;99.90
26691;DHT22;14307;51.718;8.938;2023-04-23T09:29:29;16.10;99.90
26691;DHT22;14307;51.718;8.938;2023-04-23T09:32:07;16.10;99.90
26691;DHT22;14307;51.718;8.938;2023-04-23T09:34:35;16.30;99.90
26691;DHT22;14307;51.718;8.938;2023-04-23T09:37:04;16.70;99.90
26691;DHT22;14307;51.718;8.938;2023-04-23T09:39:33;16.80;99.90
26691;DHT22;14307;51.718;8.938;2023-04-23T09:42:04;16.50;99.90
26691;DHT22;14307;51.718;8.938;2023-04-23T09:44:31;16.30;99.90
26691;DHT22;14307;51.718;8.938;2023-04-23T09:47:06;16.10;99.90
26691;DHT22;14307;51.718;8.938;2023-04-23T09:49:48;16.20;99.90
26691;DHT22;14307;51.718;8.938;2023-04-23T09:52:15;16.60;99.90
26691;DHT22;14307;51.718;8.938;2023-04-23T09:54:42;16.70;99.90
26691;DHT22;14307;51.718;8.938;2023-04-23T09:57:12;16.90;99.90
26691;DHT22;14307;51.718;8.938;2023-04-23T09:59:39;16.90;99.90
26691;DHT22;14307;51.718;8.938;2023-04-23T10:02:11;17.10;99.90
26691;DHT22;14307;51.718;8.938;2023-04-23T10:04:38;17.20;99.90
26691;DHT22;14307;51.718;8.938;2023-04-23T10:07:06;17.10;99.90
26691;DHT22;14307;51.718;8.938;2023-04-23T10:09:42;16.80;99.90
26691;DHT22;14307;51.718;8.938;2023-04-23T10:12:10;16.50;99.90
26691;DHT22;14307;51.718;8.938;2023-04-23T10:14:57;16.40;99.90
26691;DHT22;14307;51.718;8.938;2023-04-23T10:17:25;16.40;99.90
26691;DHT22;14307;51.718;8.938;2023-04-23T10:19:54;16.90;99.90
26691;DHT22;14307;51.718;8.938;2023-04-23T10:22:21;17.40;99.90
26691;DHT22;14307;51.718;8.938;2023-04-23T10:24:52;17.70;99.90
26691;DHT22;14307;51.718;8.938;2023-04-23T10:27:26;17.80;99.90
26691;DHT22;14307;51.718;8.938;2023-04-23T10:30:13;18.00;99.90
26691;DHT22;14307;51.718;8.938;2023-04-23T10:32:40;17.80;99.90
26691;DHT22;14307;51.718;8.938;2023-04-23T10:35:08;18.00;99.90
26691;DHT22;14307;51.718;8.938;2023-04-23T10:37:36;18.40;99.90
26691;DHT22;14307;51.718;8.938;2023-04-23T10:40:07;18.40;99.90
26691;DHT22;14307;51.718;8.938;2023-04-23T10:42:38;18.30;99.90
26691;DHT22;14307;51.718;8.938;2023-04-23T10:45:18;18.00;99.90
26691;DHT22;14307;51.718;8.938;2023-04-23T10:47:52;18.00;99.90
26691;DHT22;14307;51.718;8.938;2023-04-23T10:50:25;17.80;99.90
26691;DHT22;14307;51.718;8.938;2023-04-23T10:52:53;17.50;99.90
26691;DHT22;14307;51.718;8.938;2023-04-23T10:55:22;17.50;99.90
26691;DHT22;14307;51.718;8.938;2023-04-23T11:00:28;17.20;99.90
26691;DHT22;14307;51.718;8.938;2023-04-23T11:02:55;17.10;99.90
26691;DHT22;14307;51.718;8.938;2023-04-23T11:05:22;17.30;99.90
26691;DHT22;14307;51.718;8.938;2023-04-23T11:08:07;17.50;99.90
26691;DHT22;14307;51.718;8.938;2023-04-23T11:10:59;17.50;99.90
26691;DHT22;14307;51.718;8.938;2023-04-23T11:13:27;17.40;99.90
26691;DHT22;14307;51.718;8.938;2023-04-23T11:19:07;17.70;99.90
26691;DHT22;14307;51.718;8.938;2023-04-23T11:26:55;18.00;99.90
26691;DHT22;14307;51.718;8.938;2023-04-23T11:29:23;17.90;99.90
26691;DHT22;14307;51.718;8.938;2023-04-23T11:31:51;17.80;99.90
26691;DHT22;14307;51.718;8.938;2023-04-23T11:34:22;18.00;99.90
26691;DHT22;14307;51.718;8.938;2023-04-23T11:36:51;17.80;99.90
26691;DHT22;14307;51.718;8.938;2023-04-23T11:39:22;17.50;99.90
26691;DHT22;14307;51.718;8.938;2023-04-23T11:41:52;17.30;99.90
26691;DHT22;14307;51.718;8.938;2023-04-23T11:44:20;16.60;99.90
26691;DHT22;14307;51.718;8.938;2023-04-23T11:46:48;16.00;99.90
26691;DHT22;14307;51.718;8.938;2023-04-23T11:49:16;15.60;99.90
26691;DHT22;14307;51.718;8.938;2023-04-23T11:51:45;15.40;99.90
26691;DHT22;14307;51.718;8.938;2023-04-23T11:54:12;15.20;99.90
26691;DHT22;14307;51.718;8.938;2023-04-23T11:56:40;15.20;99.90
26691;DHT22;14307;51.718;8.938;2023-04-23T11:59:08;15.50;99.90
26691;DHT22;14307;51.718;8.938;2023-04-23T12:01:44;15.70;99.90
26691;DHT22;14307;51.718;8.938;2023-04-23T12:04:19;15.90;99.90
26691;DHT22;14307;51.718;8.938;2023-04-23T12:06:48;15.90;99.90
26691;DHT22;14307;51.718;8.938;2023-04-23T12:09:18;15.80;99.90
26691;DHT22;14307;51.718;8.938;2023-04-23T12:11:45;16.00;99.90
26691;DHT22;14307;51.718;8.938;2023-04-23T12:14:13;16.20;99.90
26691;DHT22;14307;51.718;8.938;2023-04-23T12:16:42;16.50;99.90
26691;DHT22;14307;51.718;8.938;2023-04-23T12:19:15;16.70;99.90
26691;DHT22;14307;51.718;8.938;2023-04-23T12:21:50;16.80;99.90
26691;DHT22;14307;51.718;8.938;2023-04-23T12:24:23;16.70;99.90
26691;DHT22;14307;51.718;8.938;2023-04-23T12:26:56;16.90;99.90
26691;DHT22;14307;51.718;8.938;2023-04-23T12:29:28;16.80;99.90
26691;DHT22;14307;51.718;8.938;2023-04-23T12:31:58;16.70;99.90
26691;DHT22;14307;51.718;8.938;2023-04-23T12:34:24;16.40;99.90
26691;DHT22;14307;51.718;8.938;2023-04-23T12:36:54;15.90;99.90
26691;DHT22;14307;51.718;8.938;2023-04-23T12:39:35;15.50;99.90
26691;DHT22;14307;51.718;8.938;2023-04-23T12:42:06;15.20;99.90
26691;DHT22;14307;51.718;8.938;2023-04-23T12:44:37;14.80;99.90
26691;DHT22;14307;51.718;8.938;2023-04-23T12:47:06;14.60;99.90
26691;DHT22;14307;51.718;8.938;2023-04-23T12:49:34;14.60;99.90
26691;DHT22;14307;51.718;8.938;2023-04-23T12:52:03;14.70;99.90
26691;DHT22;14307;51.718;8.938;2023-04-23T12:54:34;15.10;99.90
26691;DHT22;14307;51.718;8.938;2023-04-23T12:57:06;15.30;99.90
26691;DHT22;14307;51.718;8.938;2023-04-23T12:59:33;15.60;99.90
26691;DHT22;14307;51.718;8.938;2023-04-23T13:02:00;15.70;99.90
26691;DHT22;14307;51.718;8.938;2023-04-23T13:04:30;16.10;99.90
26691;DHT22;14307;51.718;8.938;2023-04-23T13:06:57;16.30;99.90
26691;DHT22;14307;51.718;8.938;2023-04-23T13:09:23;16.30;99.90
26691;DHT22;14307;51.718;8.938;2023-04-23T13:11:53;16.20;99.90
26691;DHT22;14307;51.718;8.938;2023-04-23T13:14:20;16.00;99.90
26691;DHT22;14307;51.718;8.938;2023-04-23T13:16:47;15.90;99.90
26691;DHT22;14307;51.718;8.938;2023-04-23T13:19:14;15.90;99.90
26691;DHT22;14307;51.718;8.938;2023-04-23T13:21:43;15.90;99.90
26691;DHT22;14307;51.718;8.938;2023-04-23T13:24:10;16.00;99.90
26691;DHT22;14307;51.718;8.938;2023-04-23T13:26:37;16.00;99.90
26691;DHT22;14307;51.718;8.938;2023-04-23T13:29:04;16.00;99.90
26691;DHT22;14307;51.718;8.938;2023-04-23T13:31:31;16.10;99.90
26691;DHT22;14307;51.718;8.938;2023-04-23T13:33:58;16.00;99.90
26691;DHT22;14307;51.718;8.938;2023-04-23T13:36:26;16.10;99.90
26691;DHT22;14307;51.718;8.938;2023-04-23T13:38:53;16.10;99.90
26691;DHT22;14307;51.718;8.938;2023-04-23T13:41:20;16.20;99.90
26691;DHT22;14307;51.718;8.938;2023-04-23T13:43:47;16.30;99.90
26691;DHT22;14307;51.718;8.938;2023-04-23T13:46:14;16.30;99.90
26691;DHT22;14307;51.718;8.938;2023-04-23T13:48:40;16.50;99.90
26691;DHT22;14307;51.718;8.938;2023-04-23T13:51:07;16.60;99.90
26691;DHT22;14307;51.718;8.938;2023-04-23T13:53:52;16.80;99.90
26691;DHT22;14307;51.718;8.938;2023-04-23T13:56:19;16.90;99.90
26691;DHT22;14307;51.718;8.938;2023-04-23T13:58:46;16.90;99.90
26691;DHT22;14307;51.718;8.938;2023-04-23T14:01:14;17.00;99.90
26691;DHT22;14307;51.718;8.938;2023-04-23T14:03:41;17.30;99.90
26691;DHT22;14307;51.718;8.938;2023-04-23T14:06:08;17.50;99.90
26691;DHT22;14307;51.718;8.938;2023-04-23T14:08:34;17.70;99.90
26691;DHT22;14307;51.718;8.938;2023-04-23T14:11:03;17.70;99.90
26691;DHT22;14307;51.718;8.938;2023-04-23T14:13:30;17.60;99.90
26691;DHT22;14307;51.718;8.938;2023-04-23T14:15:57;17.40;99.90
26691;DHT22;14307;51.718;8.938;2023-04-23T14:18:27;17.30;99.90
26691;DHT22;14307;51.718;8.938;2023-04-23T14:20:54;17.10;99.90
26691;DHT22;14307;51.718;8.938;2023-04-23T14:26:03;17.10;99.90
26691;DHT22;14307;51.718;8.938;2023-04-23T14:28:39;17.40;99.90
26691;DHT22;14307;51.718;8.938;2023-04-23T14:31:06;17.80;99.90
26691;DHT22;14307;51.718;8.938;2023-04-23T14:33:33;18.00;99.90
26691;DHT22;14307;51.718;8.938;2023-04-23T14:35:59;18.00;99.90
26691;DHT22;14307;51.718;8.938;2023-04-23T14:38:26;18.10;99.90
26691;DHT22;14307;51.718;8.938;2023-04-23T14:40:54;17.70;99.90
26691;DHT22;14307;51.718;8.938;2023-04-23T14:43:21;17.30;99.90
26691;DHT22;14307;51.718;8.938;2023-04-23T14:45:47;16.20;99.90
26691;DHT22;14307;51.718;8.938;2023-04-23T14:48:16;15.60;99.90
26691;DHT22;14307;51.718;8.938;2023-04-23T14:50:43;15.10;99.90
26691;DHT22;14307;51.718;8.938;2023-04-23T14:53:09;15.00;99.90
26691;DHT22;14307;51.718;8.938;2023-04-23T14:55:36;15.10;99.90
26691;DHT22;14307;51.718;8.938;2023-04-23T14:58:05;15.00;99.90
26691;DHT22;14307;51.718;8.938;2023-04-23T15:00:32;14.90;99.90
26691;DHT22;14307;51.718;8.938;2023-04-23T15:02:59;14.60;99.90
26691;DHT22;14307;51.718;8.938;2023-04-23T15:05:28;14.40;99.90
26691;DHT22;14307;51.718;8.938;2023-04-23T15:07:55;14.30;99.90
26691;DHT22;14307;51.718;8.938;2023-04-23T15:10:22;14.30;99.90
26691;DHT22;14307;51.718;8.938;2023-04-23T15:15:43;14.40;99.90
26691;DHT22;14307;51.718;8.938;2023-04-23T15:18:14;14.60;99.90
26691;DHT22;14307;51.718;8.938;2023-04-23T15:20:41;14.70;99.90
26691;DHT22;14307;51.718;8.938;2023-04-23T15:23:09;14.90;99.90
26691;DHT22;14307;51.718;8.938;2023-04-23T15:25:36;15.10;99.90
26691;DHT22;14307;51.718;8.938;2023-04-23T15:28:03;15.30;99.90
26691;DHT22;14307;51.718;8.938;2023-04-23T15:30:31;15.60;99.90
26691;DHT22;14307;51.718;8.938;2023-04-23T15:32:57;15.70;99.90
26691;DHT22;14307;51.718;8.938;2023-04-23T15:35:25;15.80;99.90
26691;DHT22;14307;51.718;8.938;2023-04-23T15:37:53;16.00;99.90
26691;DHT22;14307;51.718;8.938;2023-04-23T15:40:20;16.20;99.90
26691;DHT22;14307;51.718;8.938;2023-04-23T15:42:47;16.20;99.90
26691;DHT22;14307;51.718;8.938;2023-04-23T15:45:15;16.20;99.90
26691;DHT22;14307;51.718;8.938;2023-04-23T15:47:42;16.00;99.90
26691;DHT22;14307;51.718;8.938;2023-04-23T15:50:10;15.80;99.90
26691;DHT22;14307;51.718;8.938;2023-04-23T15:52:38;15.70;99.90
26691;DHT22;14307;51.718;8.938;2023-04-23T15:55:05;15.70;99.90
26691;DHT22;14307;51.718;8.938;2023-04-23T15:57:32;15.70;99.90
26691;DHT22;14307;51.718;8.938;2023-04-23T15:59:59;15.80;99.90